sensor_id;sensor_type;location;lat;lon;timestamp;P1;durP1;ratioP1;P2;durP2;ratioP2
12976;SDS011;6553;48.412;9.514;2023-07-02T00:01:50;1.08;;;1.08;;
12976;SDS011;6553;48.412;9.514;2023-07-02T00:04:16;0.80;;;0.80;;
12976;SDS011;6553;48.412;9.514;2023-07-02T00:06:45;1.27;;;1.17;;
12976;SDS011;6553;48.412;9.514;2023-07-02T00:09:12;1.20;;;1.10;;
12976;SDS011;6553;48.412;9.514;2023-07-02T00:11:39;0.82;;;0.82;;
12976;SDS011;6553;48.412;9.514;2023-07-02T00:14:08;1.00;;;0.90;;
12976;SDS011;6553;48.412;9.514;2023-07-02T00:16:38;1.02;;;1.00;;
12976;SDS011;6553;48.412;9.514;2023-07-02T00:19:07;0.80;;;0.80;;
12976;SDS011;6553;48.412;9.514;2023-07-02T00:21:32;0.98;;;0.90;;
12976;SDS011;6553;48.412;9.514;2023-07-02T00:23:59;1.27;;;1.10;;
12976;SDS011;6553;48.412;9.514;2023-07-02T00:26:25;0.95;;;0.95;;
12976;SDS011;6553;48.412;9.514;2023-07-02T00:28:53;0.93;;;0.93;;
12976;SDS011;6553;48.412;9.514;2023-07-02T00:31:20;1.00;;;1.00;;
12976;SDS011;6553;48.412;9.514;2023-07-02T00:33:48;1.05;;;0.93;;
12976;SDS011;6553;48.412;9.514;2023-07-02T00:36:15;0.90;;;0.90;;
12976;SDS011;6553;48.412;9.514;2023-07-02T00:38:42;1.00;;;1.00;;
12976;SDS011;6553;48.412;9.514;2023-07-02T00:41:11;0.82;;;0.82;;
12976;SDS011;6553;48.412;9.514;2023-07-02T00:43:37;0.85;;;0.85;;
12976;SDS011;6553;48.412;9.514;2023-07-02T00:46:16;1.08;;;1.08;;
12976;SDS011;6553;48.412;9.514;2023-07-02T00:48:48;1.88;;;1.13;;
12976;SDS011;6553;48.412;9.514;2023-07-02T00:51:20;1.23;;;1.15;;
12976;SDS011;6553;48.412;9.514;2023-07-02T00:53:50;1.17;;;1.10;;
12976;SDS011;6553;48.412;9.514;2023-07-02T00:56:19;1.15;;;1.08;;
12976;SDS011;6553;48.412;9.514;2023-07-02T00:58:47;1.20;;;1.10;;
12976;SDS011;6553;48.412;9.514;2023-07-02T01:01:15;1.20;;;1.02;;
12976;SDS011;6553;48.412;9.514;2023-07-02T01:03:50;1.17;;;1.08;;
12976;SDS011;6553;48.412;9.514;2023-07-02T01:06:20;1.05;;;1.00;;
12976;SDS011;6553;48.412;9.514;2023-07-02T01:08:51;1.20;;;1.20;;
12976;SDS011;6553;48.412;9.514;2023-07-02T01:11:19;1.10;;;1.10;;
12976;SDS011;6553;48.412;9.514;2023-07-02T01:13:50;0.85;;;0.85;;
12976;SDS011;6553;48.412;9.514;2023-07-02T01:16:23;1.02;;;0.98;;
12976;SDS011;6553;48.412;9.514;2023-07-02T01:18:49;1.33;;;1.23;;
12976;SDS011;6553;48.412;9.514;2023-07-02T01:21:20;1.20;;;1.10;;
12976;SDS011;6553;48.412;9.514;2023-07-02T01:23:49;0.95;;;0.85;;
12976;SDS011;6553;48.412;9.514;2023-07-02T01:26:16;1.27;;;1.17;;
12976;SDS011;6553;48.412;9.514;2023-07-02T01:28:42;1.20;;;1.20;;
12976;SDS011;6553;48.412;9.514;2023-07-02T01:31:07;1.13;;;1.10;;
12976;SDS011;6553;48.412;9.514;2023-07-02T01:33:35;1.30;;;1.20;;
12976;SDS011;6553;48.412;9.514;2023-07-02T01:36:00;1.10;;;1.10;;
12976;SDS011;6553;48.412;9.514;2023-07-02T01:38:26;1.25;;;1.17;;
12976;SDS011;6553;48.412;9.514;2023-07-02T01:40:52;1.58;;;1.48;;
12976;SDS011;6553;48.412;9.514;2023-07-02T01:43:18;1.42;;;1.33;;
12976;SDS011;6553;48.412;9.514;2023-07-02T01:45:44;1.38;;;1.27;;
12976;SDS011;6553;48.412;9.514;2023-07-02T01:48:10;1.45;;;1.35;;
12976;SDS011;6553;48.412;9.514;2023-07-02T01:50:36;1.25;;;1.15;;
12976;SDS011;6553;48.412;9.514;2023-07-02T01:53:01;1.05;;;1.05;;
12976;SDS011;6553;48.412;9.514;2023-07-02T01:55:27;1.48;;;1.38;;
12976;SDS011;6553;48.412;9.514;2023-07-02T01:57:53;1.30;;;1.20;;
12976;SDS011;6553;48.412;9.514;2023-07-02T02:00:19;1.00;;;0.90;;
12976;SDS011;6553;48.412;9.514;2023-07-02T02:02:44;1.35;;;1.25;;
12976;SDS011;6553;48.412;9.514;2023-07-02T02:05:10;2.45;;;1.50;;
12976;SDS011;6553;48.412;9.514;2023-07-02T02:07:36;1.33;;;1.23;;
12976;SDS011;6553;48.412;9.514;2023-07-02T02:10:02;1.15;;;1.15;;
12976;SDS011;6553;48.412;9.514;2023-07-02T02:12:29;1.20;;;1.10;;
12976;SDS011;6553;48.412;9.514;2023-07-02T02:14:56;1.35;;;1.25;;
12976;SDS011;6553;48.412;9.514;2023-07-02T02:17:22;1.40;;;1.30;;
12976;SDS011;6553;48.412;9.514;2023-07-02T02:19:49;1.40;;;1.30;;
12976;SDS011;6553;48.412;9.514;2023-07-02T02:22:15;1.33;;;1.23;;
12976;SDS011;6553;48.412;9.514;2023-07-02T02:24:41;1.30;;;1.20;;
12976;SDS011;6553;48.412;9.514;2023-07-02T02:27:07;1.30;;;1.20;;
12976;SDS011;6553;48.412;9.514;2023-07-02T02:29:34;1.67;;;1.58;;
12976;SDS011;6553;48.412;9.514;2023-07-02T02:31:59;1.25;;;1.20;;
12976;SDS011;6553;48.412;9.514;2023-07-02T02:34:26;1.52;;;1.42;;
12976;SDS011;6553;48.412;9.514;2023-07-02T02:36:51;1.30;;;1.25;;
12976;SDS011;6553;48.412;9.514;2023-07-02T02:39:20;1.35;;;1.25;;
12976;SDS011;6553;48.412;9.514;2023-07-02T02:41:46;1.50;;;1.40;;
12976;SDS011;6553;48.412;9.514;2023-07-02T02:44:15;1.40;;;1.30;;
12976;SDS011;6553;48.412;9.514;2023-07-02T02:46:41;1.50;;;1.40;;
12976;SDS011;6553;48.412;9.514;2023-07-02T02:49:06;1.42;;;1.30;;
12976;SDS011;6553;48.412;9.514;2023-07-02T02:51:32;1.42;;;1.35;;
12976;SDS011;6553;48.412;9.514;2023-07-02T02:53:58;1.50;;;1.40;;
12976;SDS011;6553;48.412;9.514;2023-07-02T02:56:23;1.65;;;1.55;;
12976;SDS011;6553;48.412;9.514;2023-07-02T02:58:49;1.60;;;1.50;;
12976;SDS011;6553;48.412;9.514;2023-07-02T03:01:15;1.40;;;1.30;;
12976;SDS011;6553;48.412;9.514;2023-07-02T03:03:41;1.40;;;1.30;;
12976;SDS011;6553;48.412;9.514;2023-07-02T03:06:11;1.40;;;1.30;;
12976;SDS011;6553;48.412;9.514;2023-07-02T03:08:38;1.48;;;1.38;;
12976;SDS011;6553;48.412;9.514;2023-07-02T03:11:04;1.48;;;1.38;;
12976;SDS011;6553;48.412;9.514;2023-07-02T03:13:30;1.70;;;1.60;;
12976;SDS011;6553;48.412;9.514;2023-07-02T03:15:56;1.45;;;1.35;;
12976;SDS011;6553;48.412;9.514;2023-07-02T03:18:21;1.40;;;1.30;;
12976;SDS011;6553;48.412;9.514;2023-07-02T03:20:47;1.30;;;1.20;;
12976;SDS011;6553;48.412;9.514;2023-07-02T03:23:13;1.40;;;1.30;;
12976;SDS011;6553;48.412;9.514;2023-07-02T03:25:39;1.40;;;1.30;;
12976;SDS011;6553;48.412;9.514;2023-07-02T03:28:04;1.40;;;1.30;;
12976;SDS011;6553;48.412;9.514;2023-07-02T03:30:30;1.55;;;1.45;;
12976;SDS011;6553;48.412;9.514;2023-07-02T03:32:56;1.48;;;1.38;;
12976;SDS011;6553;48.412;9.514;2023-07-02T03:35:22;1.10;;;1.10;;
12976;SDS011;6553;48.412;9.514;2023-07-02T03:37:48;1.50;;;1.40;;
12976;SDS011;6553;48.412;9.514;2023-07-02T03:40:14;1.25;;;1.23;;
12976;SDS011;6553;48.412;9.514;2023-07-02T03:42:39;1.42;;;1.33;;
12976;SDS011;6553;48.412;9.514;2023-07-02T03:45:05;1.48;;;1.40;;
12976;SDS011;6553;48.412;9.514;2023-07-02T03:47:32;1.92;;;1.50;;
12976;SDS011;6553;48.412;9.514;2023-07-02T03:49:57;1.40;;;1.30;;
12976;SDS011;6553;48.412;9.514;2023-07-02T03:52:23;1.23;;;1.23;;
12976;SDS011;6553;48.412;9.514;2023-07-02T03:54:49;1.25;;;1.15;;
12976;SDS011;6553;48.412;9.514;2023-07-02T03:57:15;1.67;;;1.58;;
12976;SDS011;6553;48.412;9.514;2023-07-02T03:59:40;1.40;;;1.30;;
12976;SDS011;6553;48.412;9.514;2023-07-02T04:02:06;1.50;;;1.40;;
12976;SDS011;6553;48.412;9.514;2023-07-02T04:04:32;1.48;;;1.38;;
12976;SDS011;6553;48.412;9.514;2023-07-02T04:06:58;1.35;;;1.27;;
12976;SDS011;6553;48.412;9.514;2023-07-02T04:09:23;1.40;;;1.30;;
12976;SDS011;6553;48.412;9.514;2023-07-02T04:11:49;1.20;;;1.10;;
12976;SDS011;6553;48.412;9.514;2023-07-02T04:14:15;1.50;;;1.40;;
12976;SDS011;6553;48.412;9.514;2023-07-02T04:16:42;1.60;;;1.50;;
12976;SDS011;6553;48.412;9.514;2023-07-02T04:19:09;1.58;;;1.48;;
12976;SDS011;6553;48.412;9.514;2023-07-02T04:21:35;1.65;;;1.55;;
12976;SDS011;6553;48.412;9.514;2023-07-02T04:24:01;1.52;;;1.42;;
12976;SDS011;6553;48.412;9.514;2023-07-02T04:26:27;1.60;;;1.50;;
12976;SDS011;6553;48.412;9.514;2023-07-02T04:28:54;1.33;;;1.23;;
12976;SDS011;6553;48.412;9.514;2023-07-02T04:31:20;1.50;;;1.40;;
12976;SDS011;6553;48.412;9.514;2023-07-02T04:33:46;1.40;;;1.30;;
12976;SDS011;6553;48.412;9.514;2023-07-02T04:36:12;1.40;;;1.30;;
12976;SDS011;6553;48.412;9.514;2023-07-02T04:38:38;1.30;;;1.20;;
12976;SDS011;6553;48.412;9.514;2023-07-02T04:41:04;1.80;;;1.70;;
12976;SDS011;6553;48.412;9.514;2023-07-02T04:43:33;1.52;;;1.42;;
12976;SDS011;6553;48.412;9.514;2023-07-02T04:45:59;1.48;;;1.38;;
12976;SDS011;6553;48.412;9.514;2023-07-02T04:48:25;1.17;;;1.17;;
12976;SDS011;6553;48.412;9.514;2023-07-02T04:50:51;1.52;;;1.42;;
12976;SDS011;6553;48.412;9.514;2023-07-02T04:53:17;1.40;;;1.30;;
12976;SDS011;6553;48.412;9.514;2023-07-02T04:55:43;1.20;;;1.10;;
12976;SDS011;6553;48.412;9.514;2023-07-02T04:58:09;1.33;;;1.23;;
12976;SDS011;6553;48.412;9.514;2023-07-02T05:00:34;1.25;;;1.20;;
12976;SDS011;6553;48.412;9.514;2023-07-02T05:03:00;1.50;;;1.40;;
12976;SDS011;6553;48.412;9.514;2023-07-02T05:05:26;1.10;;;1.10;;
12976;SDS011;6553;48.412;9.514;2023-07-02T05:07:51;1.38;;;1.27;;
12976;SDS011;6553;48.412;9.514;2023-07-02T05:10:19;1.42;;;1.33;;
12976;SDS011;6553;48.412;9.514;2023-07-02T05:12:44;1.52;;;1.38;;
12976;SDS011;6553;48.412;9.514;2023-07-02T05:15:10;1.38;;;1.27;;
12976;SDS011;6553;48.412;9.514;2023-07-02T05:17:37;1.30;;;1.20;;
12976;SDS011;6553;48.412;9.514;2023-07-02T05:20:03;1.30;;;1.20;;
12976;SDS011;6553;48.412;9.514;2023-07-02T05:22:30;1.00;;;1.00;;
12976;SDS011;6553;48.412;9.514;2023-07-02T05:24:56;1.20;;;1.20;;
12976;SDS011;6553;48.412;9.514;2023-07-02T05:27:22;1.38;;;1.27;;
12976;SDS011;6553;48.412;9.514;2023-07-02T05:29:47;1.27;;;1.17;;
12976;SDS011;6553;48.412;9.514;2023-07-02T05:32:13;1.20;;;1.10;;
12976;SDS011;6553;48.412;9.514;2023-07-02T05:34:39;1.02;;;1.00;;
12976;SDS011;6553;48.412;9.514;2023-07-02T05:37:05;1.30;;;1.20;;
12976;SDS011;6553;48.412;9.514;2023-07-02T05:39:31;1.20;;;1.20;;
12976;SDS011;6553;48.412;9.514;2023-07-02T05:41:58;1.40;;;1.30;;
12976;SDS011;6553;48.412;9.514;2023-07-02T05:44:24;1.15;;;1.05;;
12976;SDS011;6553;48.412;9.514;2023-07-02T05:46:50;1.00;;;1.00;;
12976;SDS011;6553;48.412;9.514;2023-07-02T05:49:16;1.10;;;1.10;;
12976;SDS011;6553;48.412;9.514;2023-07-02T05:51:41;1.00;;;1.00;;
12976;SDS011;6553;48.412;9.514;2023-07-02T05:54:07;1.00;;;1.00;;
12976;SDS011;6553;48.412;9.514;2023-07-02T05:56:33;1.00;;;1.00;;
12976;SDS011;6553;48.412;9.514;2023-07-02T05:58:58;1.30;;;1.20;;
12976;SDS011;6553;48.412;9.514;2023-07-02T06:01:24;1.20;;;1.10;;
12976;SDS011;6553;48.412;9.514;2023-07-02T06:03:50;1.20;;;1.20;;
12976;SDS011;6553;48.412;9.514;2023-07-02T06:06:16;1.30;;;1.20;;
12976;SDS011;6553;48.412;9.514;2023-07-02T06:08:42;0.98;;;0.98;;
12976;SDS011;6553;48.412;9.514;2023-07-02T06:11:08;1.30;;;1.20;;
12976;SDS011;6553;48.412;9.514;2023-07-02T06:13:35;1.40;;;1.30;;
12976;SDS011;6553;48.412;9.514;2023-07-02T06:16:01;1.23;;;1.13;;
12976;SDS011;6553;48.412;9.514;2023-07-02T06:18:27;1.20;;;1.10;;
12976;SDS011;6553;48.412;9.514;2023-07-02T06:20:52;0.90;;;0.90;;
12976;SDS011;6553;48.412;9.514;2023-07-02T06:23:18;1.38;;;1.23;;
12976;SDS011;6553;48.412;9.514;2023-07-02T06:25:44;1.17;;;1.10;;
12976;SDS011;6553;48.412;9.514;2023-07-02T06:28:09;1.48;;;1.30;;
12976;SDS011;6553;48.412;9.514;2023-07-02T06:30:35;1.30;;;1.20;;
12976;SDS011;6553;48.412;9.514;2023-07-02T06:33:01;2.05;;;1.50;;
12976;SDS011;6553;48.412;9.514;2023-07-02T06:35:27;1.30;;;1.20;;
12976;SDS011;6553;48.412;9.514;2023-07-02T06:37:52;1.40;;;1.30;;
12976;SDS011;6553;48.412;9.514;2023-07-02T06:40:19;1.58;;;1.48;;
12976;SDS011;6553;48.412;9.514;2023-07-02T06:42:47;1.40;;;1.30;;
12976;SDS011;6553;48.412;9.514;2023-07-02T06:45:13;1.50;;;1.40;;
12976;SDS011;6553;48.412;9.514;2023-07-02T06:47:38;1.73;;;1.63;;
12976;SDS011;6553;48.412;9.514;2023-07-02T06:50:04;1.35;;;1.25;;
12976;SDS011;6553;48.412;9.514;2023-07-02T06:52:30;1.63;;;1.52;;
12976;SDS011;6553;48.412;9.514;2023-07-02T06:54:56;1.40;;;1.30;;
12976;SDS011;6553;48.412;9.514;2023-07-02T06:57:22;1.67;;;1.58;;
12976;SDS011;6553;48.412;9.514;2023-07-02T06:59:48;1.73;;;1.63;;
12976;SDS011;6553;48.412;9.514;2023-07-02T07:02:15;1.40;;;1.30;;
12976;SDS011;6553;48.412;9.514;2023-07-02T07:04:41;1.55;;;1.45;;
12976;SDS011;6553;48.412;9.514;2023-07-02T07:07:06;1.73;;;1.63;;
12976;SDS011;6553;48.412;9.514;2023-07-02T07:09:32;1.88;;;1.67;;
12976;SDS011;6553;48.412;9.514;2023-07-02T07:11:58;1.67;;;1.52;;
12976;SDS011;6553;48.412;9.514;2023-07-02T07:14:23;1.90;;;1.80;;
12976;SDS011;6553;48.412;9.514;2023-07-02T07:16:49;2.03;;;1.90;;
12976;SDS011;6553;48.412;9.514;2023-07-02T07:19:16;2.28;;;1.80;;
12976;SDS011;6553;48.412;9.514;2023-07-02T07:21:42;1.98;;;1.70;;
12976;SDS011;6553;48.412;9.514;2023-07-02T07:24:08;2.67;;;2.10;;
12976;SDS011;6553;48.412;9.514;2023-07-02T07:26:34;2.10;;;1.90;;
12976;SDS011;6553;48.412;9.514;2023-07-02T07:29:00;1.95;;;1.85;;
12976;SDS011;6553;48.412;9.514;2023-07-02T07:31:25;2.17;;;2.05;;
12976;SDS011;6553;48.412;9.514;2023-07-02T07:33:51;2.65;;;2.20;;
12976;SDS011;6553;48.412;9.514;2023-07-02T07:36:17;2.85;;;1.98;;
12976;SDS011;6553;48.412;9.514;2023-07-02T07:38:43;2.10;;;1.90;;
12976;SDS011;6553;48.412;9.514;2023-07-02T07:41:09;2.90;;;2.28;;
12976;SDS011;6553;48.412;9.514;2023-07-02T07:43:35;2.92;;;2.10;;
12976;SDS011;6553;48.412;9.514;2023-07-02T07:46:00;2.30;;;2.10;;
12976;SDS011;6553;48.412;9.514;2023-07-02T07:48:26;2.42;;;2.22;;
12976;SDS011;6553;48.412;9.514;2023-07-02T07:50:52;2.15;;;1.95;;
12976;SDS011;6553;48.412;9.514;2023-07-02T07:53:18;2.03;;;1.90;;
12976;SDS011;6553;48.412;9.514;2023-07-02T07:55:43;2.47;;;2.10;;
12976;SDS011;6553;48.412;9.514;2023-07-02T07:58:09;2.67;;;2.20;;
12976;SDS011;6553;48.412;9.514;2023-07-02T08:00:35;2.33;;;2.13;;
12976;SDS011;6553;48.412;9.514;2023-07-02T08:03:01;2.63;;;2.15;;
12976;SDS011;6553;48.412;9.514;2023-07-02T08:05:28;2.65;;;2.38;;
12976;SDS011;6553;48.412;9.514;2023-07-02T08:07:57;2.63;;;2.40;;
12976;SDS011;6553;48.412;9.514;2023-07-02T08:10:24;2.70;;;2.42;;
12976;SDS011;6553;48.412;9.514;2023-07-02T08:12:50;2.50;;;2.30;;
12976;SDS011;6553;48.412;9.514;2023-07-02T08:15:17;2.88;;;2.13;;
12976;SDS011;6553;48.412;9.514;2023-07-02T08:17:44;2.85;;;2.50;;
12976;SDS011;6553;48.412;9.514;2023-07-02T08:20:10;3.10;;;2.80;;
12976;SDS011;6553;48.412;9.514;2023-07-02T08:22:40;3.00;;;2.67;;
12976;SDS011;6553;48.412;9.514;2023-07-02T08:25:06;2.80;;;2.60;;
12976;SDS011;6553;48.412;9.514;2023-07-02T08:27:32;2.97;;;2.47;;
12976;SDS011;6553;48.412;9.514;2023-07-02T08:29:58;2.88;;;2.60;;
12976;SDS011;6553;48.412;9.514;2023-07-02T08:32:24;3.08;;;2.78;;
12976;SDS011;6553;48.412;9.514;2023-07-02T08:34:50;3.35;;;3.05;;
12976;SDS011;6553;48.412;9.514;2023-07-02T08:37:17;3.30;;;3.00;;
12976;SDS011;6553;48.412;9.514;2023-07-02T08:39:43;3.28;;;2.92;;
12976;SDS011;6553;48.412;9.514;2023-07-02T08:42:09;3.67;;;3.13;;
12976;SDS011;6553;48.412;9.514;2023-07-02T08:44:35;3.33;;;3.03;;
12976;SDS011;6553;48.412;9.514;2023-07-02T08:47:01;3.85;;;3.33;;
12976;SDS011;6553;48.412;9.514;2023-07-02T08:49:27;4.55;;;3.47;;
12976;SDS011;6553;48.412;9.514;2023-07-02T08:51:53;3.53;;;3.22;;
12976;SDS011;6553;48.412;9.514;2023-07-02T08:54:18;4.25;;;3.15;;
12976;SDS011;6553;48.412;9.514;2023-07-02T08:56:45;3.40;;;3.10;;
12976;SDS011;6553;48.412;9.514;2023-07-02T08:59:12;3.03;;;2.67;;
12976;SDS011;6553;48.412;9.514;2023-07-02T09:01:48;3.63;;;3.22;;
12976;SDS011;6553;48.412;9.514;2023-07-02T09:06:47;4.68;;;3.40;;
12976;SDS011;6553;48.412;9.514;2023-07-02T09:09:13;3.75;;;3.17;;
12976;SDS011;6553;48.412;9.514;2023-07-02T09:11:49;4.20;;;3.33;;
12976;SDS011;6553;48.412;9.514;2023-07-02T09:17:05;3.92;;;3.40;;
12976;SDS011;6553;48.412;9.514;2023-07-02T09:19:34;3.95;;;3.53;;
12976;SDS011;6553;48.412;9.514;2023-07-02T09:22:01;4.97;;;3.58;;
12976;SDS011;6553;48.412;9.514;2023-07-02T09:24:29;3.83;;;3.42;;
12976;SDS011;6553;48.412;9.514;2023-07-02T09:26:57;4.05;;;3.60;;
12976;SDS011;6553;48.412;9.514;2023-07-02T09:29:26;3.95;;;3.58;;
12976;SDS011;6553;48.412;9.514;2023-07-02T09:31:53;3.78;;;3.47;;
12976;SDS011;6553;48.412;9.514;2023-07-02T09:34:26;3.63;;;3.33;;
12976;SDS011;6553;48.412;9.514;2023-07-02T09:36:54;4.13;;;3.72;;
12976;SDS011;6553;48.412;9.514;2023-07-02T09:39:24;4.05;;;3.65;;
12976;SDS011;6553;48.412;9.514;2023-07-02T09:41:54;4.05;;;3.65;;
12976;SDS011;6553;48.412;9.514;2023-07-02T09:44:26;4.50;;;3.95;;
12976;SDS011;6553;48.412;9.514;2023-07-02T09:46:56;5.40;;;4.30;;
12976;SDS011;6553;48.412;9.514;2023-07-02T09:49:34;4.45;;;3.85;;
12976;SDS011;6553;48.412;9.514;2023-07-02T09:52:03;4.07;;;3.75;;
12976;SDS011;6553;48.412;9.514;2023-07-02T09:54:47;5.53;;;4.57;;
12976;SDS011;6553;48.412;9.514;2023-07-02T09:57:13;6.18;;;4.63;;
12976;SDS011;6553;48.412;9.514;2023-07-02T09:59:41;4.97;;;4.40;;
12976;SDS011;6553;48.412;9.514;2023-07-02T10:02:08;4.50;;;3.97;;
12976;SDS011;6553;48.412;9.514;2023-07-02T10:04:42;4.88;;;4.28;;
12976;SDS011;6553;48.412;9.514;2023-07-02T10:07:10;4.65;;;4.00;;
12976;SDS011;6553;48.412;9.514;2023-07-02T10:09:38;3.75;;;3.45;;
12976;SDS011;6553;48.412;9.514;2023-07-02T10:14:47;5.05;;;4.13;;
12976;SDS011;6553;48.412;9.514;2023-07-02T10:17:26;5.47;;;4.53;;
12976;SDS011;6553;48.412;9.514;2023-07-02T10:20:06;5.13;;;4.57;;
12976;SDS011;6553;48.412;9.514;2023-07-02T10:22:43;4.82;;;4.32;;
12976;SDS011;6553;48.412;9.514;2023-07-02T10:25:09;5.47;;;4.85;;
12976;SDS011;6553;48.412;9.514;2023-07-02T10:27:40;6.10;;;5.05;;
12976;SDS011;6553;48.412;9.514;2023-07-02T10:30:08;5.25;;;4.72;;
12976;SDS011;6553;48.412;9.514;2023-07-02T10:32:35;5.15;;;4.65;;
12976;SDS011;6553;48.412;9.514;2023-07-02T10:35:15;6.78;;;4.90;;
12976;SDS011;6553;48.412;9.514;2023-07-02T10:37:43;5.70;;;4.55;;
12976;SDS011;6553;48.412;9.514;2023-07-02T10:40:10;5.68;;;5.13;;
12976;SDS011;6553;48.412;9.514;2023-07-02T10:42:50;5.63;;;4.97;;
12976;SDS011;6553;48.412;9.514;2023-07-02T10:45:17;4.60;;;4.05;;
12976;SDS011;6553;48.412;9.514;2023-07-02T10:47:45;6.47;;;5.30;;
12976;SDS011;6553;48.412;9.514;2023-07-02T10:52:45;6.70;;;5.47;;
12976;SDS011;6553;48.412;9.514;2023-07-02T10:55:19;5.70;;;5.20;;
12976;SDS011;6553;48.412;9.514;2023-07-02T10:57:47;6.25;;;5.15;;
12976;SDS011;6553;48.412;9.514;2023-07-02T11:00:15;7.53;;;5.50;;
12976;SDS011;6553;48.412;9.514;2023-07-02T11:02:42;6.20;;;5.57;;
12976;SDS011;6553;48.412;9.514;2023-07-02T11:05:08;7.85;;;6.55;;
12976;SDS011;6553;48.412;9.514;2023-07-02T11:07:42;7.00;;;6.10;;
12976;SDS011;6553;48.412;9.514;2023-07-02T11:10:08;6.55;;;5.45;;
12976;SDS011;6553;48.412;9.514;2023-07-02T11:12:36;5.50;;;5.00;;
12976;SDS011;6553;48.412;9.514;2023-07-02T11:15:12;6.45;;;4.93;;
12976;SDS011;6553;48.412;9.514;2023-07-02T11:17:40;5.85;;;5.28;;
12976;SDS011;6553;48.412;9.514;2023-07-02T11:20:11;6.53;;;5.43;;
12976;SDS011;6553;48.412;9.514;2023-07-02T11:22:39;5.72;;;5.20;;
12976;SDS011;6553;48.412;9.514;2023-07-02T11:25:18;6.15;;;5.55;;
12976;SDS011;6553;48.412;9.514;2023-07-02T11:27:45;6.68;;;5.97;;
12976;SDS011;6553;48.412;9.514;2023-07-02T11:30:11;6.15;;;5.50;;
12976;SDS011;6553;48.412;9.514;2023-07-02T11:32:50;7.38;;;5.95;;
12976;SDS011;6553;48.412;9.514;2023-07-02T11:35:19;7.35;;;5.75;;
12976;SDS011;6553;48.412;9.514;2023-07-02T11:37:46;7.25;;;6.05;;
12976;SDS011;6553;48.412;9.514;2023-07-02T11:40:14;6.85;;;6.15;;
12976;SDS011;6553;48.412;9.514;2023-07-02T11:42:42;6.50;;;5.47;;
12976;SDS011;6553;48.412;9.514;2023-07-02T11:45:09;6.13;;;5.55;;
12976;SDS011;6553;48.412;9.514;2023-07-02T11:47:35;7.03;;;6.32;;
12976;SDS011;6553;48.412;9.514;2023-07-02T11:50:03;6.78;;;5.78;;
12976;SDS011;6553;48.412;9.514;2023-07-02T11:52:31;6.78;;;6.15;;
12976;SDS011;6553;48.412;9.514;2023-07-02T11:54:56;6.60;;;5.93;;
12976;SDS011;6553;48.412;9.514;2023-07-02T11:57:22;8.43;;;6.75;;
12976;SDS011;6553;48.412;9.514;2023-07-02T11:59:48;6.05;;;5.28;;
12976;SDS011;6553;48.412;9.514;2023-07-02T12:02:15;7.28;;;6.57;;
12976;SDS011;6553;48.412;9.514;2023-07-02T12:04:41;8.02;;;6.45;;
12976;SDS011;6553;48.412;9.514;2023-07-02T12:07:07;7.03;;;6.35;;
12976;SDS011;6553;48.412;9.514;2023-07-02T12:09:33;8.07;;;7.20;;
12976;SDS011;6553;48.412;9.514;2023-07-02T12:11:59;7.75;;;5.93;;
12976;SDS011;6553;48.412;9.514;2023-07-02T12:14:24;8.13;;;6.93;;
12976;SDS011;6553;48.412;9.514;2023-07-02T12:16:50;8.65;;;7.65;;
12976;SDS011;6553;48.412;9.514;2023-07-02T12:19:16;7.90;;;7.10;;
12976;SDS011;6553;48.412;9.514;2023-07-02T12:21:41;9.85;;;8.00;;
12976;SDS011;6553;48.412;9.514;2023-07-02T12:24:08;9.38;;;8.20;;
12976;SDS011;6553;48.412;9.514;2023-07-02T12:26:38;9.07;;;7.53;;
12976;SDS011;6553;48.412;9.514;2023-07-02T12:29:05;8.70;;;7.68;;
12976;SDS011;6553;48.412;9.514;2023-07-02T12:31:31;10.85;;;7.97;;
12976;SDS011;6553;48.412;9.514;2023-07-02T12:33:57;10.02;;;8.85;;
12976;SDS011;6553;48.412;9.514;2023-07-02T12:36:22;9.23;;;8.25;;
12976;SDS011;6553;48.412;9.514;2023-07-02T12:38:48;9.23;;;7.97;;
12976;SDS011;6553;48.412;9.514;2023-07-02T12:41:14;8.85;;;7.72;;
12976;SDS011;6553;48.412;9.514;2023-07-02T12:43:40;8.27;;;7.28;;
12976;SDS011;6553;48.412;9.514;2023-07-02T12:46:06;8.07;;;7.15;;
12976;SDS011;6553;48.412;9.514;2023-07-02T12:48:32;9.77;;;7.90;;
12976;SDS011;6553;48.412;9.514;2023-07-02T12:50:58;9.85;;;7.72;;
12976;SDS011;6553;48.412;9.514;2023-07-02T12:53:25;9.05;;;8.07;;
12976;SDS011;6553;48.412;9.514;2023-07-02T12:55:52;10.18;;;8.23;;
12976;SDS011;6553;48.412;9.514;2023-07-02T12:58:19;9.90;;;8.90;;
12976;SDS011;6553;48.412;9.514;2023-07-02T13:00:46;9.88;;;8.85;;
12976;SDS011;6553;48.412;9.514;2023-07-02T13:03:12;8.57;;;7.63;;
12976;SDS011;6553;48.412;9.514;2023-07-02T13:05:39;10.30;;;9.20;;
12976;SDS011;6553;48.412;9.514;2023-07-02T13:08:05;9.77;;;8.77;;
12976;SDS011;6553;48.412;9.514;2023-07-02T13:10:32;8.02;;;6.93;;
12976;SDS011;6553;48.412;9.514;2023-07-02T13:12:59;10.18;;;8.70;;
12976;SDS011;6553;48.412;9.514;2023-07-02T13:15:25;10.48;;;9.32;;
12976;SDS011;6553;48.412;9.514;2023-07-02T13:17:51;10.07;;;9.05;;
12976;SDS011;6553;48.412;9.514;2023-07-02T13:20:17;11.02;;;9.27;;
12976;SDS011;6553;48.412;9.514;2023-07-02T13:22:42;8.27;;;7.40;;
12976;SDS011;6553;48.412;9.514;2023-07-02T13:25:08;8.88;;;7.97;;
12976;SDS011;6553;48.412;9.514;2023-07-02T13:27:34;10.43;;;9.32;;
12976;SDS011;6553;48.412;9.514;2023-07-02T13:30:00;12.10;;;9.55;;
12976;SDS011;6553;48.412;9.514;2023-07-02T13:32:26;11.32;;;9.35;;
12976;SDS011;6553;48.412;9.514;2023-07-02T13:34:52;10.07;;;8.70;;
12976;SDS011;6553;48.412;9.514;2023-07-02T13:37:18;10.30;;;8.93;;
12976;SDS011;6553;48.412;9.514;2023-07-02T13:39:47;10.55;;;9.07;;
12976;SDS011;6553;48.412;9.514;2023-07-02T13:42:14;11.10;;;9.25;;
12976;SDS011;6553;48.412;9.514;2023-07-02T13:44:40;9.90;;;8.85;;
12976;SDS011;6553;48.412;9.514;2023-07-02T13:47:06;11.48;;;9.25;;
12976;SDS011;6553;48.412;9.514;2023-07-02T13:49:32;10.35;;;9.13;;
12976;SDS011;6553;48.412;9.514;2023-07-02T13:51:58;10.48;;;9.38;;
12976;SDS011;6553;48.412;9.514;2023-07-02T13:54:25;10.05;;;8.60;;
12976;SDS011;6553;48.412;9.514;2023-07-02T13:56:51;10.35;;;9.25;;
12976;SDS011;6553;48.412;9.514;2023-07-02T13:59:18;10.95;;;9.52;;
12976;SDS011;6553;48.412;9.514;2023-07-02T14:01:45;10.63;;;9.25;;
12976;SDS011;6553;48.412;9.514;2023-07-02T14:04:12;11.15;;;10.02;;
12976;SDS011;6553;48.412;9.514;2023-07-02T14:06:40;10.75;;;9.52;;
12976;SDS011;6553;48.412;9.514;2023-07-02T14:09:06;10.93;;;9.55;;
12976;SDS011;6553;48.412;9.514;2023-07-02T14:11:34;12.95;;;10.40;;
12976;SDS011;6553;48.412;9.514;2023-07-02T14:14:03;10.55;;;9.45;;
12976;SDS011;6553;48.412;9.514;2023-07-02T14:16:29;11.27;;;9.65;;
12976;SDS011;6553;48.412;9.514;2023-07-02T14:18:55;10.18;;;8.93;;
12976;SDS011;6553;48.412;9.514;2023-07-02T14:21:21;11.90;;;10.50;;
12976;SDS011;6553;48.412;9.514;2023-07-02T14:23:47;9.65;;;8.70;;
12976;SDS011;6553;48.412;9.514;2023-07-02T14:26:13;9.43;;;8.27;;
12976;SDS011;6553;48.412;9.514;2023-07-02T14:28:38;10.25;;;9.02;;
12976;SDS011;6553;48.412;9.514;2023-07-02T14:31:04;11.90;;;9.73;;
12976;SDS011;6553;48.412;9.514;2023-07-02T14:33:32;10.98;;;9.77;;
12976;SDS011;6553;48.412;9.514;2023-07-02T14:36:00;10.75;;;9.02;;
12976;SDS011;6553;48.412;9.514;2023-07-02T14:38:27;11.48;;;10.23;;
12976;SDS011;6553;48.412;9.514;2023-07-02T14:40:54;11.35;;;9.52;;
12976;SDS011;6553;48.412;9.514;2023-07-02T14:43:22;11.13;;;9.07;;
12976;SDS011;6553;48.412;9.514;2023-07-02T14:45:51;11.77;;;9.90;;
12976;SDS011;6553;48.412;9.514;2023-07-02T14:48:19;10.88;;;9.52;;
12976;SDS011;6553;48.412;9.514;2023-07-02T14:50:50;12.45;;;9.90;;
12976;SDS011;6553;48.412;9.514;2023-07-02T14:53:18;11.32;;;9.70;;
12976;SDS011;6553;48.412;9.514;2023-07-02T14:55:45;9.55;;;8.50;;
12976;SDS011;6553;48.412;9.514;2023-07-02T14:58:13;11.27;;;9.50;;
12976;SDS011;6553;48.412;9.514;2023-07-02T15:00:45;11.65;;;10.05;;
12976;SDS011;6553;48.412;9.514;2023-07-02T15:03:12;11.60;;;9.75;;
12976;SDS011;6553;48.412;9.514;2023-07-02T15:05:39;11.98;;;10.52;;
12976;SDS011;6553;48.412;9.514;2023-07-02T15:08:06;11.00;;;9.77;;
12976;SDS011;6553;48.412;9.514;2023-07-02T15:10:33;11.02;;;9.85;;